createdAt,value
2023-04-07T00:04:54.588Z,8.93
2023-04-07T00:09:55.856Z,8.48
2023-04-07T00:14:54.290Z,8.05
2023-04-07T00:19:53.393Z,12.80
2023-04-07T00:24:53.013Z,10.80
2023-04-07T00:29:55.602Z,12.25
2023-04-07T00:34:53.900Z,12.18
2023-04-07T00:39:52.486Z,13.13
2023-04-07T00:44:51.956Z,11.23
2023-04-07T00:49:50.966Z,9.98
2023-04-07T00:54:50.023Z,10.80
2023-04-07T00:59:50.735Z,10.77
2023-04-07T01:04:56.762Z,15.75
2023-04-07T01:10:07.083Z,9.52
2023-04-07T01:15:23.450Z,12.35
2023-04-07T01:20:27.749Z,12.63
2023-04-07T01:26:12.393Z,8.65
2023-04-07T01:31:14.278Z,12.05
2023-04-07T01:36:14.941Z,14.00
2023-04-07T01:41:18.083Z,10.45
2023-04-07T01:46:20.270Z,10.00
2023-04-07T01:51:20.912Z,10.77
2023-04-07T01:56:21.383Z,14.10
2023-04-07T02:06:29.687Z,11.77
2023-04-07T02:11:29.851Z,17.33
2023-04-07T02:16:34.707Z,10.32
2023-04-07T02:21:34.936Z,11.50
2023-04-07T02:26:35.897Z,14.80
2023-04-07T02:31:38.078Z,14.07
2023-04-07T02:36:36.686Z,14.93
2023-04-07T02:41:42.338Z,10.30
2023-04-07T02:46:42.561Z,13.65
2023-04-07T02:51:44.335Z,10.75
2023-04-07T02:56:43.963Z,12.30
2023-04-07T03:01:43.773Z,10.98
2023-04-07T03:06:42.997Z,14.88
2023-04-07T03:11:48.114Z,17.37
2023-04-07T03:16:47.359Z,11.00
2023-04-07T03:21:49.261Z,16.20
2023-04-07T03:26:47.511Z,11.38
2023-04-07T03:31:55.677Z,13.57
2023-04-07T03:36:56.247Z,14.73
2023-04-07T03:41:56.508Z,11.18
2023-04-07T03:46:58.822Z,13.82
2023-04-07T03:51:59.071Z,16.48
2023-04-07T03:56:57.628Z,12.00
2023-04-07T04:01:56.512Z,12.32
2023-04-07T04:06:55.563Z,13.68
2023-04-07T04:12:23.999Z,11.30
2023-04-07T04:17:35.068Z,12.98
2023-04-07T04:22:36.162Z,14.98
2023-04-07T04:27:37.365Z,12.15
2023-04-07T04:32:42.595Z,13.85
2023-04-07T04:37:43.292Z,12.95
2023-04-07T04:42:43.426Z,14.68
2023-04-07T04:47:44.789Z,17.05
2023-04-07T04:52:44.888Z,10.93
2023-04-07T04:57:51.947Z,12.05
2023-04-07T05:02:58.609Z,11.38
2023-04-07T05:07:59.148Z,10.75
2023-04-07T05:13:06.289Z,12.20
2023-04-07T05:18:04.823Z,10.25
2023-04-07T05:23:03.560Z,11.52
2023-04-07T05:28:08.972Z,11.35
2023-04-07T05:33:10.321Z,9.27
2023-04-07T05:38:14.465Z,10.95
2023-04-07T05:43:13.623Z,10.65
2023-04-07T05:48:12.474Z,11.57
2023-04-07T05:53:16.506Z,9.82
2023-04-07T05:58:23.231Z,11.05
2023-04-07T06:03:25.675Z,10.00
2023-04-07T06:08:31.106Z,13.38
2023-04-07T06:13:29.869Z,10.25
2023-04-07T06:18:28.728Z,16.00
2023-04-07T06:23:27.731Z,11.07
2023-04-07T06:28:29.146Z,11.13
2023-04-07T06:33:29.629Z,13.70
2023-04-07T06:38:31.183Z,10.30
2023-04-07T06:43:31.610Z,20.08
2023-04-07T06:48:39.110Z,20.15
2023-04-07T06:53:38.520Z,11.70
2023-04-07T06:58:37.891Z,10.65
2023-04-07T07:03:38.743Z,13.63
2023-04-07T07:08:37.888Z,11.52
2023-04-07T07:13:39.253Z,13.10
2023-04-07T07:18:38.156Z,11.45
2023-04-07T07:23:35.663Z,13.68
2023-04-07T07:28:36.668Z,12.18
2023-04-07T07:33:35.803Z,18.33
2023-04-07T07:38:36.047Z,12.18
2023-04-07T07:43:37.533Z,15.80
2023-04-07T07:48:36.448Z,10.73
2023-04-07T07:53:37.818Z,13.88
2023-04-07T07:58:36.327Z,12.60
2023-04-07T08:03:37.431Z,12.38
2023-04-07T08:08:37.518Z,14.95
2023-04-07T08:13:43.530Z,15.93
2023-04-07T08:18:42.082Z,10.10
2023-04-07T08:23:47.241Z,12.13
2023-04-07T08:28:47.050Z,10.85
2023-04-07T08:33:54.460Z,13.45
2023-04-07T08:38:53.304Z,14.43
2023-04-07T08:43:54.411Z,10.85
2023-04-07T08:48:55.003Z,10.63
2023-04-07T08:53:54.385Z,11.63
2023-04-07T08:58:54.208Z,10.85
2023-04-07T09:03:54.988Z,11.57
2023-04-07T09:08:55.872Z,8.20
2023-04-07T09:13:54.065Z,13.95
2023-04-07T09:18:56.068Z,9.90
2023-04-07T09:23:54.665Z,8.20
2023-04-07T09:28:56.284Z,10.30
2023-04-07T09:33:56.764Z,7.95
2023-04-07T09:38:55.626Z,7.57
2023-04-07T09:43:58.602Z,10.05
2023-04-07T09:49:11.739Z,7.93
2023-04-07T09:54:09.921Z,8.37
2023-04-07T09:59:14.937Z,9.88
2023-04-07T10:04:14.329Z,7.40
2023-04-07T10:09:14.602Z,9.65
2023-04-07T10:14:25.924Z,8.70
2023-04-07T10:19:37.012Z,8.40
2023-04-07T10:24:54.928Z,8.13
2023-04-07T10:29:58.578Z,8.95
2023-04-07T10:34:58.328Z,8.55
2023-04-07T10:40:34.819Z,7.53
2023-04-07T10:45:52.640Z,8.50
2023-04-07T10:51:32.570Z,8.75
2023-04-07T10:57:06.053Z,8.70
2023-04-07T11:02:26.030Z,13.75
2023-04-07T11:07:50.097Z,7.43
2023-04-07T11:13:08.768Z,10.00
2023-04-07T11:18:10.366Z,6.68
2023-04-07T11:23:12.390Z,7.13
2023-04-07T11:28:14.775Z,8.35
2023-04-07T11:33:25.550Z,8.02
2023-04-07T11:38:31.523Z,7.63
2023-04-07T11:43:31.368Z,9.60
2023-04-07T11:48:35.959Z,6.68
2023-04-07T11:53:38.335Z,7.32
2023-04-07T11:58:44.629Z,8.60
2023-04-07T12:04:04.591Z,8.65
2023-04-07T12:09:03.037Z,7.05
2023-04-07T12:14:04.119Z,7.53
2023-04-07T12:19:07.740Z,7.95
2023-04-07T12:24:11.553Z,11.70
2023-04-07T12:29:12.671Z,7.93
2023-04-07T12:34:13.613Z,8.60
2023-04-07T12:39:13.332Z,14.30
2023-04-07T12:44:13.633Z,8.15
2023-04-07T12:49:13.528Z,8.00
2023-04-07T12:54:14.846Z,9.18
2023-04-07T12:59:14.093Z,9.38
2023-04-07T13:04:12.613Z,8.85
2023-04-07T13:09:12.305Z,9.70
2023-04-07T13:14:13.241Z,10.50
2023-04-07T13:19:17.403Z,11.95
2023-04-07T13:24:16.024Z,10.85
2023-04-07T13:29:14.164Z,10.80
2023-04-07T13:34:16.081Z,11.50
2023-04-07T13:39:18.872Z,14.02
2023-04-07T13:44:18.665Z,11.25
2023-04-07T13:49:22.796Z,10.48
2023-04-07T13:54:25.706Z,9.73
2023-04-07T13:59:26.922Z,10.10
2023-04-07T14:04:26.201Z,10.75
2023-04-07T14:09:24.902Z,11.77
2023-04-07T14:14:24.833Z,8.57
2023-04-07T14:19:27.559Z,8.77
2023-04-07T14:24:27.948Z,12.57
2023-04-07T14:29:26.997Z,11.77
2023-04-07T14:34:27.578Z,10.57
2023-04-07T14:39:30.966Z,13.30
2023-04-07T14:44:33.638Z,9.55
2023-04-07T14:49:32.336Z,10.18
2023-04-07T14:54:30.526Z,10.52
2023-04-07T14:59:32.161Z,10.63
2023-04-07T15:04:32.188Z,10.85
2023-04-07T15:09:36.831Z,11.23
2023-04-07T15:14:34.563Z,11.80
2023-04-07T15:19:35.730Z,12.07
2023-04-07T15:24:34.647Z,11.15
2023-04-07T15:29:35.716Z,26.35
2023-04-07T15:34:35.717Z,11.57
2023-04-07T15:39:33.312Z,11.93
2023-04-07T15:44:39.881Z,12.95
2023-04-07T15:49:42.428Z,12.57
2023-04-07T15:54:40.562Z,12.45
2023-04-07T15:59:38.786Z,12.45
2023-04-07T16:04:38.903Z,13.68
2023-04-07T16:09:36.486Z,13.15
2023-04-07T16:14:40.601Z,12.77
2023-04-07T16:19:40.572Z,13.40
2023-04-07T16:24:40.629Z,13.65
2023-04-07T16:29:40.581Z,13.15
2023-04-07T16:34:38.050Z,12.40
2023-04-07T16:39:35.985Z,13.35
2023-04-07T16:44:36.874Z,12.18
2023-04-07T16:49:38.600Z,13.13
2023-04-07T16:54:40.804Z,14.80
2023-04-07T16:59:43.113Z,12.90
2023-04-07T17:04:42.402Z,13.52
2023-04-07T17:09:42.157Z,12.63
2023-04-07T17:14:39.708Z,14.75
2023-04-07T17:19:39.220Z,17.02
2023-04-07T17:24:37.382Z,15.95
2023-04-07T17:29:38.419Z,14.40
2023-04-07T17:34:36.214Z,13.88
2023-04-07T17:39:35.776Z,14.05
2023-04-07T17:44:37.653Z,13.38
2023-04-07T17:49:36.087Z,14.88
2023-04-07T17:54:39.564Z,13.10
2023-04-07T17:59:37.247Z,12.50
2023-04-07T18:04:44.077Z,12.98
2023-04-07T18:09:43.211Z,12.18
2023-04-07T18:14:47.491Z,12.57
2023-04-07T18:19:49.159Z,15.50
2023-04-07T18:24:49.330Z,19.58
2023-04-07T18:29:47.700Z,12.57
2023-04-07T18:34:50.652Z,17.02
2023-04-07T18:39:54.969Z,14.70
2023-04-07T18:44:54.158Z,13.90
2023-04-07T18:49:53.884Z,13.07
2023-04-07T18:54:56.278Z,13.35
2023-04-07T18:59:54.974Z,13.38
2023-04-07T19:04:55.109Z,15.32
2023-04-07T19:09:56.065Z,16.73
2023-04-07T19:14:56.006Z,14.98
2023-04-07T19:19:55.124Z,18.35
2023-04-07T19:24:52.941Z,17.10
2023-04-07T19:29:51.564Z,15.18
2023-04-07T19:34:50.605Z,17.13
2023-04-07T19:40:01.678Z,15.60
2023-04-07T19:45:03.197Z,17.08
2023-04-07T19:50:01.715Z,16.08
2023-04-07T19:55:02.371Z,16.45
2023-04-07T20:00:03.419Z,12.65
2023-04-07T20:05:00.924Z,14.32
2023-04-07T20:09:59.302Z,14.63
2023-04-07T20:15:00.049Z,15.68
2023-04-07T20:19:58.935Z,14.50
2023-04-07T20:24:59.187Z,14.48
2023-04-07T20:29:57.287Z,14.18
2023-04-07T20:34:58.274Z,15.43
2023-04-07T20:39:57.055Z,15.57
2023-04-07T20:45:02.412Z,16.17
2023-04-07T20:50:01.061Z,16.20
2023-04-07T20:54:58.558Z,17.45
2023-04-07T20:59:57.503Z,17.48
2023-04-07T21:04:56.886Z,20.67
2023-04-07T21:09:55.743Z,17.30
2023-04-07T21:14:54.212Z,18.15
2023-04-07T21:19:52.403Z,17.33
2023-04-07T21:24:49.958Z,17.15
2023-04-07T21:29:48.353Z,16.55
2023-04-07T21:34:46.834Z,18.45
2023-04-07T21:39:44.346Z,17.52
2023-04-07T21:44:43.750Z,15.57
2023-04-07T21:49:48.545Z,15.85
2023-04-07T21:54:47.082Z,15.85
2023-04-07T21:59:46.225Z,30.30
2023-04-07T22:04:44.986Z,20.80
2023-04-07T22:09:44.282Z,18.27
2023-04-07T22:14:45.215Z,16.52
2023-04-07T22:19:44.389Z,21.23
2023-04-07T22:24:42.271Z,20.10
2023-04-07T22:29:42.063Z,16.50
2023-04-07T22:34:39.614Z,17.90
2023-04-07T22:39:37.295Z,17.30
2023-04-07T22:44:35.713Z,22.17
2023-04-07T22:49:34.693Z,19.42
2023-04-07T22:54:33.452Z,16.35
2023-04-07T22:59:34.683Z,18.83
2023-04-07T23:04:33.135Z,17.73
2023-04-07T23:09:32.512Z,16.90
2023-04-07T23:14:33.024Z,21.83
2023-04-07T23:19:32.359Z,19.08
2023-04-07T23:24:30.532Z,19.23
2023-04-07T23:29:29.571Z,20.80
2023-04-07T23:34:28.556Z,20.65
2023-04-07T23:39:30.630Z,18.30
2023-04-07T23:44:30.512Z,20.10
2023-04-07T23:49:32.219Z,19.23
2023-04-07T23:54:30.299Z,24.73
2023-04-07T23:59:29.053Z,20.30
